Richmond, Virginia
Current Conditions -  °F | °C
As of 9:54 PM on Monday 26 Jan 2015 (Local Time) from KRIC Reporting Station
Overcast Overcast  
Wind Chill: 24°   Ceiling: 900
Heat Index: 34°   Visibility: 7mi
Dew Point: 32°   Wind: 15mph
Humidity: 92%   Direction: 350°N
Pressure: 29.7"   Gusts: 21mph
Location:  37.54°N, 77.43°W
Report Text: KRIC 270254Z 35013G18KT 7SM OVC009 01/00 A2970 RMK AO2 RAB10E39 CIG 006V013 SLP063 P0000 60000 T00110000 51009
Loading
Personal Weather Stations






























Interactive Weather Map New forecast layout! Learn more

10-Day Weather Forecast

Advertisements
Track Severe Weather on mobile